Time;durP1;ratioP1;P1;durP2;ratioP2;P2;SDS_P1;SDS_P2;PMS_P1;PMS_P2;Temp;Humidity;BMP_temperature;BMP_pressure;BME280_temperature;BME280_humidity;BME280_pressure;Samples;Min_cycle;Max_cycle;Signal;HPM_P1;HPM_P2
2023/03/29 00:01:59;;;;;;;28.45;13.57;;;;;;;-1.79;73.22;100289.44;5052051;28;20060;-77
2023/03/29 00:04:26;;;;;;;24.80;13.48;;;;;;;-1.93;72.93;100251.81;5052022;28;20024;-76
2023/03/29 00:06:52;;;;;;;49.75;25.08;;;;;;;-1.72;72.52;100295.50;5052216;28;20086;-76
2023/03/29 00:09:18;;;;;;;69.13;34.33;;;;;;;-1.86;72.55;100267.19;5052167;28;20382;-76
2023/03/29 00:11:44;;;;;;;53.50;24.65;;;;;;;-1.80;72.90;100276.66;5052095;28;20017;-76
2023/03/29 00:14:10;;;;;;;39.03;19.10;;;;;;;-1.79;73.61;100281.78;5051502;28;20020;-76
2023/03/29 00:16:35;;;;;;;38.95;18.88;;;;;;;-1.88;73.77;100261.22;5051767;28;20025;-76
2023/03/29 00:19:01;;;;;;;33.67;15.93;;;;;;;-1.92;73.52;100249.25;5052139;28;20036;-76
2023/03/29 00:21:26;;;;;;;28.80;16.35;;;;;;;-1.81;72.72;100273.25;5051830;28;20114;-77
2023/03/29 00:23:51;;;;;;;31.38;16.48;;;;;;;-1.80;73.24;100271.56;5051979;28;20082;-76
2023/03/29 00:26:17;;;;;;;32.80;16.08;;;;;;;-1.75;72.90;100282.69;5051565;28;20094;-76
2023/03/29 00:28:42;;;;;;;29.85;16.27;;;;;;;-1.74;73.31;100279.28;5051808;28;20032;-76
2023/03/29 00:31:10;;;;;;;31.38;17.20;;;;;;;-1.86;73.62;100267.19;5051735;28;20032;-76
2023/03/29 00:33:36;;;;;;;29.90;15.32;;;;;;;-1.87;73.73;100274.84;5051670;28;20017;-76
2023/03/29 00:36:03;;;;;;;32.75;15.25;;;;;;;-1.82;74.06;100280.88;5051821;28;20036;-76
2023/03/29 00:38:29;;;;;;;27.25;13.85;;;;;;;-2.06;73.89;100240.56;5051509;28;20028;-76
2023/03/29 00:40:54;;;;;;;25.52;13.60;;;;;;;-2.06;74.11;100248.22;5051661;28;20048;-76
2023/03/29 00:43:20;;;;;;;29.02;13.95;;;;;;;-2.07;74.59;100259.25;5051433;28;20449;-76
2023/03/29 00:45:45;;;;;;;29.52;14.45;;;;;;;-2.04;75.33;100267.81;5051511;28;20465;-77
2023/03/29 00:48:24;;;;;;;26.42;13.65;;;;;;;-2.30;76.03;100229.16;5051642;28;20086;-76
2023/03/29 00:50:55;;;;;;;35.60;14.77;;;;;;;-2.17;76.62;100248.06;5051654;28;20025;-76
2023/03/29 00:53:34;;;;;;;24.85;14.25;;;;;;;-2.07;76.83;100261.81;5051636;28;20033;-76
2023/03/29 00:56:23;;;;;;;28.20;14.90;;;;;;;-2.20;76.81;100235.25;5051491;28;20060;-76
2023/03/29 00:59:05;;;;;;;32.05;16.02;;;;;;;-2.06;76.69;100254.19;5051722;28;20059;-76
2023/03/29 01:02:02;;;;;;;48.80;20.52;;;;;;;-2.01;76.47;100252.56;5050160;28;20440;-76
2023/03/29 01:04:44;;;;;;;33.65;16.10;;;;;;;-1.98;76.31;100258.53;5048868;28;20212;-76
2023/03/29 01:07:20;;;;;;;30.63;15.18;;;;;;;-2.26;77.15;100220.72;5049111;28;20214;-77
2023/03/29 01:09:52;;;;;;;36.38;19.95;;;;;;;-2.30;76.97;100224.06;5049088;28;20029;-76
2023/03/29 01:12:25;;;;;;;48.53;24.40;;;;;;;-2.19;77.16;100237.00;5048721;28;20086;-76
2023/03/29 01:14:55;;;;;;;57.22;28.65;;;;;;;-2.26;77.71;100235.19;5048838;28;20456;-77
2023/03/29 01:17:20;;;;;;;62.80;29.17;;;;;;;-2.19;77.96;100246.31;5048719;28;20236;-77
2023/03/29 01:19:56;;;;;;;71.13;36.30;;;;;;;-2.18;78.25;100246.34;5048850;28;20178;-77
2023/03/29 01:22:53;;;;;;;69.35;35.33;;;;;;;-2.21;78.22;100242.91;5048621;28;20045;-77
2023/03/29 01:25:52;;;;;;;63.53;31.75;;;;;;;-2.20;78.05;100234.41;5048685;28;20477;-77
2023/03/29 01:28:23;;;;;;;74.95;36.38;;;;;;;-2.33;78.28;100220.59;4992854;28;20047;-76
2023/03/29 01:30:59;;;;;;;72.05;34.17;;;;;;;-2.28;78.93;100235.13;4993294;28;20085;-77
2023/03/29 01:33:30;;;;;;;62.47;32.63;;;;;;;-2.40;79.36;100203.47;4992841;28;20062;-77
2023/03/29 01:36:04;;;;;;;58.33;27.25;;;;;;;-2.23;78.95;100235.22;4993207;28;20038;-76
2023/03/29 01:38:35;;;;;;;55.50;28.48;;;;;;;-2.30;79.63;100220.66;4992852;28;20494;-76
2023/03/29 01:41:02;;;;;;;40.55;22.05;;;;;;;-2.27;80.23;100218.16;4999867;28;20129;-76
2023/03/29 01:43:48;;;;;;;43.25;21.63;;;;;;;-2.35;80.52;100202.75;5012473;28;20038;-76
2023/03/29 01:46:25;;;;;;;35.05;19.25;;;;;;;-2.33;79.88;100202.75;4996189;28;20038;-76
2023/03/29 01:48:56;;;;;;;41.40;21.00;;;;;;;-2.34;80.36;100207.00;4996147;28;20398;-76
2023/03/29 01:51:28;;;;;;;33.63;18.83;;;;;;;-2.29;80.00;100205.34;5012318;28;20037;-77
2023/03/29 01:54:05;;;;;;;35.40;20.30;;;;;;;-2.19;80.08;100223.34;5012451;28;20478;-76
2023/03/29 01:56:36;;;;;;;36.53;20.73;;;;;;;-2.18;80.22;100225.94;5012093;28;20552;-76
2023/03/29 01:59:06;;;;;;;32.42;19.55;;;;;;;-2.53;80.04;100171.84;5012305;28;20402;-76
2023/03/29 02:01:39;;;;;;;35.03;18.58;;;;;;;-2.29;79.28;100218.13;5012109;28;20037;-76
2023/03/29 02:04:11;;;;;;;36.10;18.85;;;;;;;-2.34;79.01;100208.69;5017995;28;20457;-76
2023/03/29 02:06:38;;;;;;;34.28;18.17;;;;;;;-2.32;79.14;100219.75;5054083;28;20033;-76
2023/03/29 02:09:05;;;;;;;31.23;18.88;;;;;;;-2.38;79.27;100204.38;5054181;28;20021;-76
2023/03/29 02:11:33;;;;;;;35.10;18.77;;;;;;;-2.23;79.20;100229.25;5053966;28;20473;-76
2023/03/29 02:13:58;;;;;;;35.15;18.65;;;;;;;-2.20;79.04;100230.16;5054191;28;20064;-76
2023/03/29 02:16:24;;;;;;;34.67;18.85;;;;;;;-2.22;79.20;100226.72;5054174;28;20049;-77
2023/03/29 02:18:51;;;;;;;33.97;18.60;;;;;;;-2.29;78.91;100204.50;5054274;28;20037;-76
2023/03/29 02:21:38;;;;;;;33.95;17.35;;;;;;;-2.18;78.86;100223.38;5052589;28;20029;-77
2023/03/29 02:24:07;;;;;;;33.70;16.75;;;;;;;-2.39;78.88;100193.31;5054053;28;20024;-76
2023/03/29 02:26:33;;;;;;;36.05;18.48;;;;;;;-2.27;78.72;100215.59;5053669;28;20052;-77
2023/03/29 02:28:58;;;;;;;29.20;17.30;;;;;;;-2.34;78.28;100199.34;5054088;28;20033;-77
2023/03/29 02:31:45;;;;;;;32.17;18.65;;;;;;;-2.53;78.58;100170.19;5053679;28;20029;-77
2023/03/29 02:34:19;;;;;;;36.40;21.45;;;;;;;-2.21;78.58;100214.81;5054151;28;20270;-77
2023/03/29 02:36:49;;;;;;;34.38;20.45;;;;;;;-2.22;78.76;100213.13;5053412;28;20021;-77
2023/03/29 02:39:16;;;;;;;34.85;21.70;;;;;;;-2.23;78.91;100204.59;5053953;28;20029;-76
2023/03/29 02:41:45;;;;;;;41.40;21.40;;;;;;;-2.20;78.68;100207.19;5053604;28;20057;-77
2023/03/29 02:44:18;;;;;;;36.63;20.35;;;;;;;-2.19;78.83;100203.81;5053713;28;20025;-77
2023/03/29 02:46:44;;;;;;;38.67;19.35;;;;;;;-2.18;79.15;100209.78;5054027;28;20107;-77
2023/03/29 02:49:10;;;;;;;37.20;18.75;;;;;;;-2.24;79.43;100192.66;5053653;28;20036;-77
2023/03/29 02:51:37;;;;;;;43.70;20.27;;;;;;;-2.19;79.81;100198.72;5053419;28;20412;-77
2023/03/29 02:54:12;;;;;;;34.75;19.75;;;;;;;-2.16;80.19;100195.31;5053556;28;20037;-77
2023/03/29 02:56:46;;;;;;;37.97;20.10;;;;;;;-2.19;80.32;100195.28;5053152;28;20429;-76
2023/03/29 02:59:12;;;;;;;35.70;19.20;;;;;;;-2.37;80.49;100167.81;5053340;28;20072;-77
2023/03/29 03:01:41;;;;;;;39.05;19.50;;;;;;;-2.35;80.22;100161.06;5053240;28;20048;-76
2023/03/29 03:04:08;;;;;;;38.20;19.10;;;;;;;-2.19;80.36;100187.63;5053386;28;20110;-76
2023/03/29 03:06:35;;;;;;;32.75;18.27;;;;;;;-2.29;81.03;100156.88;5053100;28;20033;-76
2023/03/29 03:09:01;;;;;;;39.33;20.20;;;;;;;-2.07;80.76;100183.53;5053098;28;20068;-77
2023/03/29 03:11:26;;;;;;;39.53;20.30;;;;;;;-2.21;80.87;100157.00;5052918;28;20040;-77
2023/03/29 03:13:51;;;;;;;33.97;19.27;;;;;;;-1.98;80.90;100187.94;5053530;28;20032;-76
2023/03/29 03:16:17;;;;;;;39.72;22.00;;;;;;;-1.93;81.00;100183.72;5053214;28;20359;-77
2023/03/29 03:18:44;;;;;;;44.65;24.55;;;;;;;-2.24;81.49;100122.91;5052681;28;20037;-76
2023/03/29 03:21:10;;;;;;;45.97;23.20;;;;;;;-2.02;81.62;100153.84;5053071;28;20116;-76
2023/03/29 03:23:35;;;;;;;42.28;21.77;;;;;;;-1.95;81.66;100170.06;5052664;28;20108;-76
2023/03/29 03:26:01;;;;;;;45.00;23.60;;;;;;;-2.05;82.42;100140.19;5052687;28;20063;-77
2023/03/29 03:28:27;;;;;;;41.58;23.13;;;;;;;-1.85;81.92;100177.03;5052773;28;20044;-77
2023/03/29 03:30:53;;;;;;;42.38;22.20;;;;;;;-1.84;82.07;100176.19;5053075;28;20468;-76
2023/03/29 03:33:18;;;;;;;39.92;20.23;;;;;;;-2.07;82.74;100135.03;5052900;28;20029;-77
2023/03/29 03:35:45;;;;;;;38.55;21.40;;;;;;;-1.96;82.83;100139.44;5052546;28;20080;-77
2023/03/29 03:38:11;;;;;;;40.75;20.08;;;;;;;-1.76;82.34;100164.38;5051628;28;20037;-76
2023/03/29 03:40:36;;;;;;;36.50;19.40;;;;;;;-1.74;82.32;100159.25;5052324;28;20028;-76
2023/03/29 03:43:01;;;;;;;37.92;19.63;;;;;;;-1.85;82.15;100128.50;5052767;28;20617;-77
2023/03/29 03:45:27;;;;;;;36.88;20.48;;;;;;;-1.72;82.27;100151.63;5051000;28;20033;-76
2023/03/29 03:47:52;;;;;;;36.08;21.15;;;;;;;-1.90;82.10;100119.06;5052184;28;20033;-76
2023/03/29 03:50:18;;;;;;;39.72;21.27;;;;;;;-1.70;82.26;100148.25;5052171;28;20095;-76
2023/03/29 03:52:43;;;;;;;39.22;22.58;;;;;;;-1.87;83.00;100116.56;5052219;28;20036;-76
2023/03/29 03:55:09;;;;;;;36.13;21.85;;;;;;;-1.72;82.12;100142.28;5052547;28;20036;-76
2023/03/29 03:57:37;;;;;;;38.25;21.50;;;;;;;-1.70;82.49;100148.25;5052275;28;20021;-76
2023/03/29 04:00:17;;;;;;;38.30;22.58;;;;;;;-1.64;82.64;100143.22;5052412;28;20036;-76
2023/03/29 04:02:44;;;;;;;33.15;19.42;;;;;;;-1.69;82.01;100128.66;5052294;28;20033;-76
2023/03/29 04:05:10;;;;;;;34.72;18.20;;;;;;;-1.56;82.20;100146.72;5052237;28;20465;-76
2023/03/29 04:07:35;;;;;;;31.83;17.20;;;;;;;-1.56;82.27;100135.59;5052048;28;20059;-76
2023/03/29 04:10:00;;;;;;;34.20;18.38;;;;;;;-1.51;81.92;100128.88;5052341;28;20021;-76
2023/03/29 04:12:26;;;;;;;33.08;17.65;;;;;;;-1.59;82.53;100110.91;5051783;28;20032;-76
2023/03/29 04:14:51;;;;;;;29.33;18.05;;;;;;;-1.72;82.58;100086.09;5052173;28;20408;-76
2023/03/29 04:17:16;;;;;;;31.38;17.00;;;;;;;-1.55;81.96;100109.25;5051881;28;20086;-76
2023/03/29 04:19:42;;;;;;;33.35;16.95;;;;;;;-1.39;81.95;100131.56;5052107;28;20130;-76
2023/03/29 04:22:07;;;;;;;32.55;18.30;;;;;;;-1.80;81.56;100059.63;5052126;28;20032;-76
2023/03/29 04:24:32;;;;;;;33.47;18.55;;;;;;;-1.34;81.59;100131.59;5051631;28;20025;-76
2023/03/29 04:26:58;;;;;;;28.33;17.08;;;;;;;-1.38;81.47;100124.72;5051683;28;20463;-76
2023/03/29 04:29:23;;;;;;;29.75;16.23;;;;;;;-1.35;81.09;100130.72;5051787;28;20037;-76
2023/03/29 04:31:48;;;;;;;30.45;16.17;;;;;;;-1.38;81.32;100104.28;5051649;28;20111;-76
2023/03/29 04:34:14;;;;;;;27.25;16.02;;;;;;;-1.32;81.33;100104.34;5051882;28;20028;-76
2023/03/29 04:36:39;;;;;;;27.35;15.10;;;;;;;-1.17;80.53;100124.06;5051554;28;20397;-76
2023/03/29 04:39:06;;;;;;;30.52;15.38;;;;;;;-1.33;80.24;100106.03;5051942;28;20116;-76
2023/03/29 04:41:33;;;;;;;23.85;14.93;;;;;;;-1.17;79.63;100116.41;5051694;28;20135;-76
2023/03/29 04:43:58;;;;;;;27.42;16.15;;;;;;;-1.26;80.19;100106.97;5051759;28;20381;-76
2023/03/29 04:46:26;;;;;;;31.90;16.88;;;;;;;-1.10;80.45;100130.94;5051896;28;20021;-76
2023/03/29 04:48:52;;;;;;;25.02;15.40;;;;;;;-1.08;79.81;100134.38;5051714;28;20037;-76
2023/03/29 04:51:20;;;;;;;27.83;14.77;;;;;;;-1.22;80.09;100111.25;5051642;28;20029;-76
2023/03/29 04:53:47;;;;;;;33.55;16.40;;;;;;;-1.17;80.07;100111.28;5051264;28;20031;-76
2023/03/29 04:56:12;;;;;;;28.00;16.15;;;;;;;-1.14;79.78;100108.72;5051725;28;20041;-76
2023/03/29 04:58:38;;;;;;;32.20;16.63;;;;;;;-0.95;80.46;100132.75;5051435;28;20032;-76
2023/03/29 05:01:04;;;;;;;28.33;17.10;;;;;;;-0.97;80.24;100129.31;5054649;28;20054;-76
2023/03/29 05:03:30;;;;;;;30.38;17.08;;;;;;;-0.88;80.53;100131.97;5055276;28;20538;-76
2023/03/29 05:06:05;;;;;;;29.98;16.65;;;;;;;-0.94;80.62;100106.34;5055511;28;20107;-76
2023/03/29 05:08:31;;;;;;;27.75;15.95;;;;;;;-0.93;80.32;100103.78;5055350;28;20171;-76
2023/03/29 05:10:56;;;;;;;30.08;16.23;;;;;;;-0.68;79.47;100130.38;5055580;28;20115;-76
2023/03/29 05:13:22;;;;;;;34.53;18.92;;;;;;;-0.64;79.66;100128.72;5055395;28;20029;-76
2023/03/29 05:15:47;;;;;;;30.73;16.42;;;;;;;-0.71;80.16;100092.03;5055147;28;20028;-76
2023/03/29 05:18:13;;;;;;;26.45;16.23;;;;;;;-0.54;79.22;100123.66;5055716;28;20021;-76
2023/03/29 05:20:39;;;;;;;29.08;17.23;;;;;;;-0.53;79.52;100119.41;5054972;28;20033;-76
2023/03/29 05:23:04;;;;;;;30.83;16.88;;;;;;;-0.41;78.29;100123.75;5055693;28;20048;-76
2023/03/29 05:25:30;;;;;;;27.35;15.90;;;;;;;-0.28;77.65;100115.28;5055299;28;20036;-76
2023/03/29 05:27:56;;;;;;;34.58;20.45;;;;;;;-0.03;77.58;100114.53;5038949;28;20532;-77
2023/03/29 05:30:21;;;;;;;34.33;19.05;;;;;;;0.28;76.82;100086.44;5035217;28;20025;-77
2023/03/29 05:32:46;;;;;;;29.92;17.63;;;;;;;1.04;74.81;100102.72;5034843;28;20209;-78
2023/03/29 05:35:12;;;;;;;34.47;18.23;;;;;;;1.59;72.85;100075.22;5035015;28;20466;-79
2023/03/29 05:37:37;;;;;;;29.55;16.63;;;;;;;2.49;70.46;100041.34;5034946;28;20462;-77
2023/03/29 05:40:06;;;;;;;37.22;17.60;;;;;;;3.91;68.08;100087.97;5034966;28;20021;-77
2023/03/29 05:42:32;;;;;;;26.65;15.73;;;;;;;4.27;65.63;100085.78;5034762;28;20038;-78
2023/03/29 05:44:57;;;;;;;23.02;15.32;;;;;;;4.28;65.13;100089.22;5032271;28;20041;-78
2023/03/29 05:47:22;;;;;;;24.40;15.88;;;;;;;4.21;65.62;100070.38;5032321;28;20048;-78
2023/03/29 05:49:48;;;;;;;28.20;16.98;;;;;;;4.55;64.93;100083.69;5031979;28;20418;-78
2023/03/29 05:52:13;;;;;;;31.25;17.05;;;;;;;5.10;63.29;100061.25;5032287;28;20037;-77
2023/03/29 05:54:38;;;;;;;31.90;17.83;;;;;;;6.02;60.69;100081.03;5032145;28;20038;-78
2023/03/29 05:57:04;;;;;;;26.20;14.07;;;;;;;6.43;58.83;100068.91;5032437;28;20031;-77
2023/03/29 05:59:31;;;;;;;25.90;14.45;;;;;;;6.31;58.53;100066.59;5031990;28;20473;-78
2023/03/29 06:01:56;;;;;;;33.83;17.30;;;;;;;5.82;58.15;100050.41;5032164;28;20033;-78
2023/03/29 06:04:21;;;;;;;30.02;16.05;;;;;;;6.22;58.38;100093.53;5032027;28;20049;-78
2023/03/29 06:06:47;;;;;;;25.52;15.05;;;;;;;6.30;57.10;100085.59;5031857;28;20029;-78
2023/03/29 06:09:13;;;;;;;23.90;13.75;;;;;;;5.79;57.47;100091.81;5032026;28;20037;-78
2023/03/29 06:11:38;;;;;;;20.80;11.70;;;;;;;5.16;58.04;100071.47;5030887;28;20042;-78
2023/03/29 06:14:03;;;;;;;18.17;11.35;;;;;;;4.94;59.03;100089.06;5031950;28;20025;-78
2023/03/29 06:16:29;;;;;;;22.67;12.20;;;;;;;4.63;59.68;100070.63;5033560;28;20037;-78
2023/03/29 06:18:55;;;;;;;25.13;13.85;;;;;;;4.46;60.02;100073.47;5034020;28;20025;-78
2023/03/29 06:21:21;;;;;;;21.15;11.77;;;;;;;4.68;60.62;100090.34;5034451;28;20056;-78
2023/03/29 06:23:46;;;;;;;22.58;12.68;;;;;;;5.13;60.23;100082.69;5034203;28;20101;-78
2023/03/29 06:26:12;;;;;;;23.77;13.52;;;;;;;6.21;59.76;100081.50;5034190;28;20540;-78
2023/03/29 06:28:37;;;;;;;18.88;12.35;;;;;;;7.24;56.29;100070.34;5033802;28;20440;-78
2023/03/29 06:31:03;;;;;;;18.77;11.60;;;;;;;7.71;55.39;100052.69;5034042;28;20489;-78
2023/03/29 06:33:31;;;;;;;20.05;11.63;;;;;;;7.96;54.08;100067.50;5033954;28;20071;-78
2023/03/29 06:35:56;;;;;;;20.00;11.90;;;;;;;7.80;54.07;100069.72;5034101;28;20033;-78
2023/03/29 06:38:22;;;;;;;15.95;10.52;;;;;;;7.93;54.25;100050.31;5034113;28;20033;-78
2023/03/29 06:40:47;;;;;;;17.80;11.68;;;;;;;8.43;53.78;100054.91;5034006;28;20034;-78
2023/03/29 06:43:13;;;;;;;18.90;12.43;;;;;;;9.10;52.94;100062.22;5033883;28;20105;-78
2023/03/29 06:45:39;;;;;;;21.30;12.50;;;;;;;9.85;51.93;100050.00;5033544;28;20037;-78
2023/03/29 06:48:06;;;;;;;19.52;11.88;;;;;;;10.33;50.03;100049.09;5032253;28;20384;-78
2023/03/29 06:50:32;;;;;;;21.77;12.88;;;;;;;10.38;49.85;100017.66;5033664;28;20480;-78
2023/03/29 06:52:57;;;;;;;21.00;14.18;;;;;;;11.05;49.13;100053.97;5033762;28;20025;-79
2023/03/29 06:55:24;;;;;;;21.73;12.75;;;;;;;11.03;48.07;100041.91;5033734;28;20025;-79
2023/03/29 06:57:50;;;;;;;21.63;13.57;;;;;;;10.99;47.99;100039.41;5033726;28;20116;-80
2023/03/29 07:00:17;;;;;;;19.75;12.57;;;;;;;10.65;48.47;100049.53;5033490;28;20160;-80
2023/03/29 07:02:44;;;;;;;23.63;13.35;;;;;;;10.24;48.98;100029.47;5033081;28;20026;-80
2023/03/29 07:05:12;;;;;;;21.38;14.45;;;;;;;10.11;50.00;100058.56;5033612;28;20132;-80
2023/03/29 07:10:31;;;;;;;26.63;14.40;;;;;;;8.89;51.01;100020.50;5033552;28;20087;-80
2023/03/29 07:12:58;;;;;;;22.95;13.98;;;;;;;8.66;51.97;100060.19;5033064;28;20114;-80
2023/03/29 07:15:25;;;;;;;35.83;19.98;;;;;;;8.32;53.09;100044.81;5033247;28;20075;-80
2023/03/29 07:17:50;;;;;;;44.35;23.63;;;;;;;7.98;53.70;100045.84;5033163;28;20033;-80
2023/03/29 07:20:15;;;;;;;28.70;15.95;;;;;;;8.22;53.58;100072.78;5033274;28;20025;-80
2023/03/29 07:22:42;;;;;;;23.48;13.90;;;;;;;8.48;53.99;100068.59;5032932;28;20096;-80
2023/03/29 07:25:09;;;;;;;26.15;15.30;;;;;;;9.22;53.46;100069.59;5033754;28;20112;-80
2023/03/29 07:27:36;;;;;;;23.85;14.27;;;;;;;9.93;51.82;100054.91;5032792;28;20048;-78
2023/03/29 07:30:02;;;;;;;21.85;13.82;;;;;;;10.07;51.08;100067.41;5033332;28;20124;-80
2023/03/29 07:32:30;;;;;;;18.15;10.93;;;;;;;10.18;50.26;100063.50;5032990;28;20037;-80
2023/03/29 07:34:55;;;;;;;19.08;12.20;;;;;;;10.71;50.13;100049.31;5032648;28;20117;-80
2023/03/29 07:37:21;;;;;;;20.35;12.35;;;;;;;11.12;48.51;100063.22;5032668;28;20056;-80
2023/03/29 07:39:46;;;;;;;18.42;11.10;;;;;;;10.83;48.80;100051.41;5032434;28;20035;-80
2023/03/29 07:42:11;;;;;;;19.73;10.52;;;;;;;10.87;48.89;100062.53;5032531;28;20051;-80
2023/03/29 07:44:37;;;;;;;18.83;12.90;;;;;;;10.95;48.57;100018.75;5032585;28;20041;-80
2023/03/29 07:47:04;;;;;;;19.92;12.10;;;;;;;11.96;48.21;100051.69;5032753;28;20474;-80
2023/03/29 07:49:30;;;;;;;15.52;11.68;;;;;;;12.48;46.37;100027.53;5032700;28;20037;-80
2023/03/29 07:51:55;;;;;;;21.92;12.95;;;;;;;13.05;45.84;100029.94;5032367;28;20022;-80
2023/03/29 07:54:20;;;;;;;19.90;11.25;;;;;;;13.61;44.66;100027.03;5032517;28;20393;-80
2023/03/29 07:56:46;;;;;;;17.65;11.52;;;;;;;14.46;44.07;100033.75;5032341;28;20092;-80
2023/03/29 07:59:12;;;;;;;21.52;13.88;;;;;;;15.30;42.92;100034.09;5032471;28;20485;-80
2023/03/29 08:01:39;;;;;;;15.00;9.35;;;;;;;14.66;42.09;100009.03;5032318;28;20034;-80
2023/03/29 08:04:05;;;;;;;18.25;11.38;;;;;;;14.78;42.41;100029.28;5032365;28;20030;-80
2023/03/29 08:06:30;;;;;;;17.98;10.68;;;;;;;14.52;42.90;100014.22;5032408;28;20178;-80
2023/03/29 08:08:56;;;;;;;16.80;9.93;;;;;;;14.33;43.65;100032.75;5031984;28;20030;-80
2023/03/29 08:11:23;;;;;;;17.35;9.90;;;;;;;13.16;44.38;100023.25;5032207;28;20025;-80
2023/03/29 08:13:48;;;;;;;16.27;9.80;;;;;;;12.13;46.34;100037.03;5032157;28;20029;-81
2023/03/29 08:16:14;;;;;;;17.95;11.07;;;;;;;11.88;47.27;100016.44;5032289;28;20028;-80
2023/03/29 08:18:39;;;;;;;18.35;10.55;;;;;;;11.89;47.56;100039.03;5032245;28;20126;-80
2023/03/29 08:21:05;;;;;;;22.08;13.98;;;;;;;11.48;48.57;100016.44;5032148;28;20036;-80
2023/03/29 08:23:30;;;;;;;17.35;11.27;;;;;;;11.36;49.15;100045.66;5032144;28;20029;-81
2023/03/29 08:25:56;;;;;;;16.73;10.38;;;;;;;11.44;48.68;100035.75;5031814;28;20125;-81
2023/03/29 08:28:21;;;;;;;15.15;10.00;;;;;;;11.48;48.97;100018.22;5032321;28;20080;-81
2023/03/29 08:30:46;;;;;;;12.68;8.80;;;;;;;11.70;48.83;100021.53;5032121;28;20120;-80
2023/03/29 08:33:12;;;;;;;17.60;11.40;;;;;;;11.78;48.51;100028.19;5030706;28;20405;-80
2023/03/29 08:35:37;;;;;;;18.55;9.48;;;;;;;11.16;49.32;100001.34;5035811;28;20040;-80
2023/03/29 08:38:02;;;;;;;15.15;9.63;;;;;;;11.13;50.63;100024.97;5050056;28;20082;-80
2023/03/29 08:40:29;;;;;;;12.50;7.07;;;;;;;10.96;50.11;100016.13;5051879;28;20041;-80
2023/03/29 08:43:13;;;;;;;13.88;7.82;;;;;;;10.97;50.19;100022.16;5051342;28;20064;-80
2023/03/29 08:45:58;;;;;;;14.27;7.60;;;;;;;10.77;50.30;100009.97;5051887;28;20037;-81
2023/03/29 08:48:40;;;;;;;13.88;7.90;;;;;;;10.81;50.20;100024.56;5031523;28;20030;-81
2023/03/29 08:51:26;;;;;;;9.80;7.57;;;;;;;10.88;50.81;100019.97;5031675;28;20032;-77
2023/03/29 08:54:03;;;;;;;11.27;6.75;;;;;;;11.04;50.42;100017.53;5031517;28;20485;-80
2023/03/29 08:56:34;;;;;;;13.35;7.60;;;;;;;11.07;50.47;100012.19;5031606;28;20592;-80
2023/03/29 08:59:00;;;;;;;16.63;9.98;;;;;;;11.22;50.37;100003.72;5031393;28;20079;-81
2023/03/29 09:01:34;;;;;;;15.15;8.43;;;;;;;11.51;50.15;100014.63;5031793;28;20037;-81
2023/03/29 09:04:03;;;;;;;12.18;7.07;;;;;;;11.55;50.03;100000.53;5031827;28;20022;-81
2023/03/29 09:06:28;;;;;;;21.50;9.45;;;;;;;11.55;49.45;100013.59;5032247;28;20476;-81
2023/03/29 09:08:54;;;;;;;14.52;10.23;;;;;;;11.40;48.94;100002.06;5031392;28;20024;-81
2023/03/29 09:11:22;;;;;;;20.77;13.75;;;;;;;11.31;49.47;100016.34;5031722;28;20025;-81
2023/03/29 09:14:17;;;;;;;13.70;8.52;;;;;;;11.41;50.30;100019.38;5031365;28;20021;-80
2023/03/29 09:17:06;;;;;;;19.33;11.40;;;;;;;10.79;50.14;100015.09;5030202;28;20033;-80
2023/03/29 09:19:43;;;;;;;20.30;11.55;;;;;;;10.44;51.47;99996.56;5048897;28;20056;-80
2023/03/29 09:22:44;;;;;;;16.25;8.68;;;;;;;10.42;51.80;100001.00;5048780;28;20083;-80
2023/03/29 09:25:20;;;;;;;12.48;8.55;;;;;;;10.42;52.42;99996.63;5048879;28;20045;-80
2023/03/29 09:28:03;;;;;;;10.93;6.60;;;;;;;10.18;52.27;99968.94;5031549;28;20049;-80
2023/03/29 09:30:35;;;;;;;18.63;7.82;;;;;;;10.09;52.88;99997.94;5048827;28;20461;-80
2023/03/29 09:33:13;;;;;;;14.13;8.13;;;;;;;9.67;53.13;99981.31;5048701;28;20119;-80
2023/03/29 09:35:52;;;;;;;14.35;8.02;;;;;;;9.80;53.62;99983.44;5048944;28;20037;-80
2023/03/29 09:38:19;;;;;;;12.93;7.80;;;;;;;9.95;53.15;99983.72;5048896;28;20485;-80
2023/03/29 09:40:49;;;;;;;14.15;8.18;;;;;;;9.96;54.40;99955.94;5048622;28;20487;-80
2023/03/29 09:43:27;;;;;;;12.98;7.57;;;;;;;10.43;53.62;99987.06;5048749;28;20071;-80
2023/03/29 09:45:56;;;;;;;9.40;6.10;;;;;;;10.23;52.08;99973.03;5048549;28;20025;-80
2023/03/29 09:48:23;;;;;;;11.40;6.88;;;;;;;10.38;52.54;99962.97;5051851;28;20028;-80
2023/03/29 09:50:50;;;;;;;16.65;9.50;;;;;;;10.41;52.86;99988.91;5052083;28;20115;-80
2023/03/29 09:53:18;;;;;;;31.42;14.32;;;;;;;10.42;52.88;99972.34;5052275;28;20443;-80
2023/03/29 09:55:45;;;;;;;25.23;13.48;;;;;;;10.30;53.22;99978.91;5049536;28;20037;-80
2023/03/29 09:58:26;;;;;;;13.05;7.47;;;;;;;10.02;53.13;99963.50;5034875;28;20037;-80
2023/03/29 10:00:55;;;;;;;16.00;8.60;;;;;;;9.90;53.93;99976.97;5042818;28;20021;-80
2023/03/29 10:03:24;;;;;;;14.63;7.93;;;;;;;9.47;54.40;99965.59;5054404;28;20029;-80
2023/03/29 10:05:53;;;;;;;9.45;7.18;;;;;;;9.40;55.53;99949.41;5045973;28;20477;-81
2023/03/29 10:08:26;;;;;;;14.02;8.35;;;;;;;9.64;55.00;99932.00;5034370;28;20022;-80
2023/03/29 10:10:52;;;;;;;13.00;7.63;;;;;;;9.70;55.30;99907.53;5034321;28;20025;-80
2023/03/29 10:13:25;;;;;;;12.88;7.63;;;;;;;9.85;54.82;99925.13;5034785;28;20037;-80
2023/03/29 10:16:06;;;;;;;15.40;8.05;;;;;;;9.99;55.09;99943.66;5033685;28;20061;-80
2023/03/29 10:18:32;;;;;;;11.68;7.43;;;;;;;9.88;54.94;99939.78;5042479;28;20115;-80
2023/03/29 10:21:01;;;;;;;14.77;8.35;;;;;;;9.74;55.61;99912.56;5052094;28;20108;-80
2023/03/29 10:23:33;;;;;;;15.23;7.93;;;;;;;10.19;55.39;99939.41;5054359;28;20029;-80
2023/03/29 10:26:03;;;;;;;14.02;7.90;;;;;;;10.48;54.05;99936.47;5045118;28;20132;-80
2023/03/29 10:28:29;;;;;;;15.73;8.55;;;;;;;10.51;53.18;99880.81;5033621;28;20036;-80
2023/03/29 10:30:58;;;;;;;12.70;8.15;;;;;;;11.02;52.78;99925.53;5033444;28;20391;-80
2023/03/29 10:33:26;;;;;;;19.10;11.20;;;;;;;11.16;53.04;99924.00;5033554;28;20366;-80
2023/03/29 10:35:56;;;;;;;16.88;8.70;;;;;;;11.01;52.42;99919.47;5033679;28;20112;-80
2023/03/29 10:38:24;;;;;;;13.98;7.90;;;;;;;11.01;52.01;99929.91;5033946;28;20363;-81
2023/03/29 10:40:52;;;;;;;13.15;6.90;;;;;;;11.17;52.01;99922.25;5033405;28;20078;-80
2023/03/29 10:43:25;;;;;;;9.95;7.20;;;;;;;11.18;51.82;99903.94;5033872;28;20104;-80
2023/03/29 10:45:53;;;;;;;11.75;6.82;;;;;;;11.15;51.43;99888.41;5033511;28;20040;-80
2023/03/29 10:48:24;;;;;;;12.50;7.38;;;;;;;11.47;51.34;99913.03;5033864;28;20112;-80
2023/03/29 10:50:51;;;;;;;10.80;6.65;;;;;;;11.07;51.01;99863.63;5033732;28;20029;-80
2023/03/29 10:53:32;;;;;;;7.90;6.25;;;;;;;11.40;50.85;99903.78;5033887;28;20081;-80
2023/03/29 10:56:16;;;;;;;12.75;7.45;;;;;;;11.44;50.73;99901.91;5033399;28;20030;-80
2023/03/29 10:58:47;;;;;;;14.73;8.85;;;;;;;11.69;51.07;99897.22;5033535;28;20064;-81
2023/03/29 11:01:24;;;;;;;22.70;11.73;;;;;;;11.45;50.13;99878.34;5033588;28;20029;-80
2023/03/29 11:04:18;;;;;;;13.30;8.07;;;;;;;11.62;49.47;99898.41;5033400;28;20040;-80
2023/03/29 11:06:56;;;;;;;18.70;10.48;;;;;;;11.70;49.35;99890.25;5030951;28;20038;-80
2023/03/29 11:09:59;;;;;;;15.27;8.73;;;;;;;11.82;49.70;99894.03;5030987;28;20124;-80
2023/03/29 11:12:33;;;;;;;12.32;7.85;;;;;;;11.79;49.23;99888.94;5030936;28;20034;-81
2023/03/29 11:15:31;;;;;;;11.95;5.70;;;;;;;11.65;49.80;99887.84;5030554;28;20037;-81
2023/03/29 11:18:16;;;;;;;14.80;10.32;;;;;;;11.40;50.48;99837.75;5030615;28;20044;-81
2023/03/29 11:20:58;;;;;;;16.88;8.75;;;;;;;11.49;51.05;99860.78;5030792;28;20149;-81
2023/03/29 11:23:44;;;;;;;10.95;7.03;;;;;;;11.38;50.79;99847.44;5030749;28;20064;-81
2023/03/29 11:26:27;;;;;;;12.93;6.60;;;;;;;11.37;51.15;99838.72;5030221;28;20036;-81
2023/03/29 11:29:08;;;;;;;11.23;5.32;;;;;;;11.43;50.82;99858.47;5030352;28;20121;-81